Terminal Aerodrome Forecast
Issued by NWS

Home | Current Version | Previous Version | Text Only | Print | Product List | Glossary Off
Versions: 1 2 3 4 5 6 7 8 9 10 11 12 13

000
FTUS43 KMPX 052323
TAFRNH
TAF
KRNH 052323Z 0600/0624 22008KT P6SM SKC
     FM061300 24006KT P6SM FEW250
     FM061800 24013G20KT P6SM FEW250=

USA.gov is the U.S. government's official web portal to all federal, state and local government web resources and services.